JES3638 SABE-SAME
Flight info
| Callsign | JES3638 |
|---|---|
| Flight time | 1h 32m |
| Altitude | 30000 |
| Route | PAL9 NEPIS DCT NIN UL405 PAPIR PAPIR1U |
| Aircraft | A320/M-SDE3FGHIRWY/LB1 |
Departure
| Time | 2026-04-22 21:40 |
|---|---|
| Airport | Aeroparque Jorge Newbery (SABE) |
Arrival
| Time | 2026-04-22 23:12 |
|---|---|
| Airport | Governor Francisco Gabrielli International Airport (SAME) |
| Time | Latitude | Longitude | Altitude | Speed | Heading |
|---|---|---|---|---|---|
| 2026-04-22 21:22 | -34.55629 | -58.41629 | 26 ft | 0 kts | 33° |
| 2026-04-22 21:27 | -34.55633 | -58.41633 | 27 ft | 2 kts | 33° |
| 2026-04-22 21:27 | -34.55645 | -58.41642 | 27 ft | 0 kts | 33° |
| 2026-04-22 21:27 | -34.55654 | -58.41649 | 26 ft | 2 kts | 18° |
| 2026-04-22 21:27 | -34.55669 | -58.41652 | 27 ft | 2 kts | 0° |
| 2026-04-22 21:28 | -34.55684 | -58.41650 | 27 ft | 2 kts | 340° |
| 2026-04-22 21:28 | -34.55697 | -58.41641 | 27 ft | 2 kts | 321° |
| 2026-04-22 21:28 | -34.55705 | -58.41632 | 27 ft | 0 kts | 306° |
| 2026-04-22 21:28 | -34.55709 | -58.41625 | 27 ft | 0 kts | 303° |
| 2026-04-22 21:32 | -34.55708 | -58.41626 | 26 ft | 0 kts | 304° |
| 2026-04-22 21:32 | -34.55701 | -58.41639 | 26 ft | 3 kts | 306° |
| 2026-04-22 21:32 | -34.55683 | -58.41669 | 26 ft | 5 kts | 303° |
| 2026-04-22 21:32 | -34.55663 | -58.41707 | 26 ft | 5 kts | 303° |
| 2026-04-22 21:33 | -34.55638 | -58.41750 | 26 ft | 6 kts | 304° |
| 2026-04-22 21:33 | -34.55610 | -58.41801 | 26 ft | 7 kts | 300° |
| 2026-04-22 21:33 | -34.55624 | -58.41848 | 26 ft | 2 kts | 213° |
| 2026-04-22 21:33 | -34.55627 | -58.41851 | 26 ft | 0 kts | 214° |
| 2026-04-22 21:36 | -34.55646 | -58.41867 | 26 ft | 6 kts | 216° |
| 2026-04-22 21:37 | -34.55639 | -58.41914 | 26 ft | 6 kts | 301° |
| 2026-04-22 21:37 | -34.55608 | -58.41976 | 26 ft | 11 kts | 301° |
| 2026-04-22 21:37 | -34.55563 | -58.42056 | 26 ft | 11 kts | 309° |
| 2026-04-22 21:37 | -34.55511 | -58.42136 | 26 ft | 12 kts | 306° |
| 2026-04-22 21:38 | -34.55461 | -58.42220 | 26 ft | 12 kts | 305° |
| 2026-04-22 21:38 | -34.55409 | -58.42305 | 26 ft | 12 kts | 307° |
| 2026-04-22 21:38 | -34.55363 | -58.42397 | 26 ft | 12 kts | 282° |
| 2026-04-22 21:38 | -34.55372 | -58.42499 | 26 ft | 11 kts | 224° |
| 2026-04-22 21:39 | -34.55436 | -58.42449 | 26 ft | 12 kts | 126° |
| 2026-04-22 21:39 | -34.55516 | -58.42303 | 26 ft | 48 kts | 122° |
| 2026-04-22 21:39 | -34.55845 | -58.41715 | 27 ft | 118 kts | 123° |
| 2026-04-22 21:39 | -34.56403 | -58.40709 | 249 ft | 151 kts | 124° |
| 2026-04-22 21:40 | -34.56977 | -58.39643 | 851 ft | 151 kts | 124° |
| 2026-04-22 21:40 | -34.57401 | -58.38474 | 1435 ft | 155 kts | 90° |
| 2026-04-22 21:40 | -34.56999 | -58.37295 | 2016 ft | 153 kts | 58° |
| 2026-04-22 21:40 | -34.56455 | -58.36178 | 2490 ft | 159 kts | 60° |
| 2026-04-22 21:41 | -34.55912 | -58.34918 | 2862 ft | 175 kts | 62° |
| 2026-04-22 21:41 | -34.55344 | -58.33550 | 3237 ft | 191 kts | 63° |
| 2026-04-22 21:41 | -34.54705 | -58.32032 | 3576 ft | 214 kts | 63° |
| 2026-04-22 21:41 | -34.53907 | -58.30397 | 3992 ft | 235 kts | 46° |
| 2026-04-22 21:42 | -34.52471 | -58.29376 | 4445 ft | 251 kts | 8° |
| 2026-04-22 21:42 | -34.50716 | -58.29613 | 4962 ft | 264 kts | 332° |
| 2026-04-22 21:42 | -34.49362 | -58.31119 | 5660 ft | 270 kts | 296° |
| 2026-04-22 21:42 | -34.48896 | -58.33279 | 6522 ft | 271 kts | 271° |
| 2026-04-22 21:43 | -34.48919 | -58.35594 | 7377 ft | 274 kts | 267° |
| 2026-04-22 21:43 | -34.48999 | -58.37953 | 8191 ft | 278 kts | 267° |
| 2026-04-22 21:43 | -34.49086 | -58.40367 | 9019 ft | 281 kts | 267° |
| 2026-04-22 21:43 | -34.49166 | -58.42736 | 9811 ft | 284 kts | 267° |
| 2026-04-22 21:44 | -34.49244 | -58.45218 | 10576 ft | 289 kts | 267° |
| 2026-04-22 21:44 | -34.49320 | -58.47765 | 11003 ft | 305 kts | 267° |
| 2026-04-22 21:44 | -34.49400 | -58.50494 | 11360 ft | 323 kts | 267° |
| 2026-04-22 21:44 | -34.49482 | -58.53328 | 11966 ft | 331 kts | 267° |
| 2026-04-22 21:45 | -34.49564 | -58.56182 | 12744 ft | 333 kts | 267° |
| 2026-04-22 21:45 | -34.49647 | -58.59068 | 13530 ft | 334 kts | 267° |
| 2026-04-22 21:45 | -34.49727 | -58.61914 | 14284 ft | 335 kts | 267° |
| 2026-04-22 21:45 | -34.49806 | -58.64697 | 15000 ft | 337 kts | 267° |
| 2026-04-22 21:46 | -34.49884 | -58.67540 | 15715 ft | 338 kts | 268° |
| 2026-04-22 21:46 | -34.49964 | -58.70437 | 16425 ft | 340 kts | 268° |
| 2026-04-22 21:46 | -34.50044 | -58.73350 | 17115 ft | 341 kts | 268° |
| 2026-04-22 21:46 | -34.50124 | -58.76308 | 17795 ft | 343 kts | 268° |
| 2026-04-22 21:47 | -34.50203 | -58.79244 | 18449 ft | 344 kts | 268° |
| 2026-04-22 21:47 | -34.50285 | -58.82254 | 19096 ft | 346 kts | 268° |
| 2026-04-22 21:47 | -34.50368 | -58.85256 | 19710 ft | 348 kts | 269° |
| 2026-04-22 21:47 | -34.50450 | -58.88278 | 20297 ft | 350 kts | 270° |
| 2026-04-22 21:48 | -34.50531 | -58.91314 | 20858 ft | 353 kts | 270° |
| 2026-04-22 21:48 | -34.50611 | -58.94395 | 21399 ft | 357 kts | 271° |
| 2026-04-22 21:48 | -34.50690 | -58.97514 | 21921 ft | 360 kts | 271° |
| 2026-04-22 21:48 | -34.50768 | -59.00639 | 22417 ft | 364 kts | 271° |
| 2026-04-22 21:49 | -34.50847 | -59.03832 | 22900 ft | 369 kts | 272° |
| 2026-04-22 21:49 | -34.50922 | -59.06999 | 23378 ft | 372 kts | 272° |
| 2026-04-22 21:49 | -34.50998 | -59.10219 | 23903 ft | 375 kts | 272° |
| 2026-04-22 21:49 | -34.51073 | -59.13414 | 24429 ft | 376 kts | 272° |
| 2026-04-22 21:50 | -34.51150 | -59.16690 | 24952 ft | 378 kts | 272° |
| 2026-04-22 21:50 | -34.51226 | -59.19948 | 25455 ft | 379 kts | 272° |
| 2026-04-22 21:50 | -34.51302 | -59.23225 | 25944 ft | 381 kts | 272° |
| 2026-04-22 21:50 | -34.51376 | -59.26433 | 26406 ft | 382 kts | 272° |
| 2026-04-22 21:51 | -34.51451 | -59.29742 | 26868 ft | 383 kts | 272° |
| 2026-04-22 21:51 | -34.51525 | -59.33024 | 27312 ft | 385 kts | 272° |
| 2026-04-22 21:51 | -34.51594 | -59.36319 | 27737 ft | 386 kts | 272° |
| 2026-04-22 21:52 | -34.51733 | -59.42920 | 28527 ft | 388 kts | 272° |
| 2026-04-22 21:52 | -34.51802 | -59.46224 | 28895 ft | 390 kts | 272° |
| 2026-04-22 21:52 | -34.51870 | -59.49509 | 29243 ft | 391 kts | 272° |
| 2026-04-22 21:52 | -34.51939 | -59.52809 | 29577 ft | 392 kts | 272° |
| 2026-04-22 21:53 | -34.52007 | -59.56124 | 29896 ft | 393 kts | 271° |
| 2026-04-22 21:53 | -34.52078 | -59.59468 | 30098 ft | 394 kts | 271° |
| 2026-04-22 21:53 | -34.52150 | -59.62823 | 30105 ft | 393 kts | 271° |
| 2026-04-22 21:54 | -34.52289 | -59.69583 | 30115 ft | 393 kts | 272° |
| 2026-04-22 21:54 | -34.52421 | -59.76322 | 30116 ft | 393 kts | 272° |
| 2026-04-22 21:55 | -34.52547 | -59.83001 | 30116 ft | 393 kts | 272° |
| 2026-04-22 21:55 | -34.52669 | -59.89744 | 30116 ft | 393 kts | 272° |
| 2026-04-22 21:56 | -34.52787 | -59.96389 | 30116 ft | 393 kts | 272° |
| 2026-04-22 21:56 | -34.52900 | -60.03045 | 30116 ft | 393 kts | 272° |
| 2026-04-22 21:57 | -34.53009 | -60.09667 | 30116 ft | 393 kts | 272° |
| 2026-04-22 21:57 | -34.53115 | -60.16291 | 30116 ft | 393 kts | 272° |
| 2026-04-22 21:58 | -34.53218 | -60.22917 | 30116 ft | 393 kts | 272° |
| 2026-04-22 21:58 | -34.53316 | -60.29544 | 30117 ft | 393 kts | 272° |
| 2026-04-22 21:59 | -34.53412 | -60.36205 | 30121 ft | 393 kts | 272° |
| 2026-04-22 21:59 | -34.53503 | -60.42836 | 30127 ft | 393 kts | 272° |
| 2026-04-22 22:00 | -34.53592 | -60.49457 | 30134 ft | 393 kts | 272° |
| 2026-04-22 22:00 | -34.53676 | -60.56093 | 30140 ft | 393 kts | 272° |
| 2026-04-22 22:01 | -34.53753 | -60.62705 | 30143 ft | 393 kts | 272° |
| 2026-04-22 22:01 | -34.53830 | -60.69305 | 30145 ft | 392 kts | 272° |
| 2026-04-22 22:02 | -34.53906 | -60.75950 | 30145 ft | 392 kts | 272° |
| 2026-04-22 22:02 | -34.53976 | -60.82531 | 30144 ft | 392 kts | 272° |
| 2026-04-22 22:03 | -34.54009 | -60.89153 | 30144 ft | 392 kts | 275° |
| 2026-04-22 22:03 | -34.53608 | -60.95717 | 30144 ft | 390 kts | 279° |
| 2026-04-22 22:04 | -34.52711 | -61.02220 | 30143 ft | 391 kts | 282° |
| 2026-04-22 22:04 | -34.51710 | -61.08747 | 30143 ft | 395 kts | 282° |
| 2026-04-22 22:05 | -34.50695 | -61.15324 | 30143 ft | 398 kts | 282° |
| 2026-04-22 22:05 | -34.49668 | -61.21941 | 30143 ft | 402 kts | 282° |
| 2026-04-22 22:06 | -34.48629 | -61.28620 | 30144 ft | 403 kts | 282° |
| 2026-04-22 22:06 | -34.47590 | -61.35257 | 30144 ft | 403 kts | 282° |
| 2026-04-22 22:07 | -34.46540 | -61.41950 | 30145 ft | 403 kts | 282° |
| 2026-04-22 22:07 | -34.45497 | -61.48566 | 30145 ft | 403 kts | 282° |
| 2026-04-22 22:08 | -34.44437 | -61.55261 | 30145 ft | 403 kts | 282° |
| 2026-04-22 22:08 | -34.43372 | -61.61889 | 30145 ft | 403 kts | 282° |
| 2026-04-22 22:09 | -34.42293 | -61.68594 | 30145 ft | 403 kts | 283° |
| 2026-04-22 22:09 | -34.41229 | -61.75227 | 30145 ft | 403 kts | 283° |
| 2026-04-22 22:10 | -34.40156 | -61.81877 | 30144 ft | 403 kts | 283° |
| 2026-04-22 22:10 | -34.39079 | -61.88526 | 30144 ft | 403 kts | 283° |
| 2026-04-22 22:11 | -34.38000 | -61.95169 | 30144 ft | 403 kts | 283° |
| 2026-04-22 22:11 | -34.36918 | -62.01802 | 30144 ft | 403 kts | 283° |
| 2026-04-22 22:12 | -34.35824 | -62.08475 | 30145 ft | 403 kts | 283° |
| 2026-04-22 22:12 | -34.34730 | -62.15105 | 30145 ft | 403 kts | 283° |
| 2026-04-22 22:13 | -34.33630 | -62.21746 | 30144 ft | 403 kts | 283° |
| 2026-04-22 22:13 | -34.32526 | -62.28392 | 30141 ft | 403 kts | 283° |
| 2026-04-22 22:14 | -34.31418 | -62.35049 | 30135 ft | 403 kts | 283° |
| 2026-04-22 22:14 | -34.30305 | -62.41711 | 30128 ft | 403 kts | 283° |
| 2026-04-22 22:15 | -34.29190 | -62.48362 | 30122 ft | 403 kts | 283° |
| 2026-04-22 22:15 | -34.28070 | -62.55024 | 30120 ft | 403 kts | 283° |
| 2026-04-22 22:16 | -34.26949 | -62.61663 | 30119 ft | 403 kts | 283° |
| 2026-04-22 22:16 | -34.25821 | -62.68302 | 30119 ft | 403 kts | 283° |
| 2026-04-22 22:17 | -34.24701 | -62.74918 | 30118 ft | 402 kts | 283° |
| 2026-04-22 22:17 | -34.23561 | -62.81608 | 30118 ft | 402 kts | 283° |
| 2026-04-22 22:18 | -34.22414 | -62.88309 | 30119 ft | 402 kts | 283° |
| 2026-04-22 22:18 | -34.21248 | -62.95077 | 30121 ft | 403 kts | 283° |
| 2026-04-22 22:19 | -34.20105 | -63.01700 | 30125 ft | 404 kts | 282° |
| 2026-04-22 22:19 | -34.18949 | -63.08392 | 30128 ft | 406 kts | 282° |
| 2026-04-22 22:20 | -34.17788 | -63.15109 | 30133 ft | 407 kts | 282° |
| 2026-04-22 22:20 | -34.16632 | -63.21778 | 30140 ft | 407 kts | 282° |
| 2026-04-22 22:21 | -34.15462 | -63.28497 | 30150 ft | 407 kts | 282° |
| 2026-04-22 22:21 | -34.14281 | -63.35233 | 30159 ft | 407 kts | 282° |
| 2026-04-22 22:22 | -34.13018 | -63.41881 | 30167 ft | 407 kts | 283° |
| 2026-04-22 22:22 | -34.11702 | -63.48501 | 30170 ft | 407 kts | 283° |
| 2026-04-22 22:23 | -34.10379 | -63.55178 | 30171 ft | 407 kts | 283° |
| 2026-04-22 22:23 | -34.09067 | -63.61809 | 30171 ft | 407 kts | 283° |
| 2026-04-22 22:24 | -34.07745 | -63.68486 | 30171 ft | 407 kts | 283° |
| 2026-04-22 22:24 | -34.06428 | -63.75130 | 30171 ft | 407 kts | 283° |
| 2026-04-22 22:25 | -34.05097 | -63.81818 | 30171 ft | 407 kts | 283° |
| 2026-04-22 22:25 | -34.03770 | -63.88456 | 30171 ft | 407 kts | 283° |
| 2026-04-22 22:26 | -34.02448 | -63.95074 | 30171 ft | 407 kts | 283° |
| 2026-04-22 22:26 | -34.01119 | -64.01708 | 30171 ft | 407 kts | 283° |
| 2026-04-22 22:27 | -33.99787 | -64.08336 | 30171 ft | 407 kts | 283° |
| 2026-04-22 22:27 | -33.98446 | -64.14985 | 30171 ft | 407 kts | 283° |
| 2026-04-22 22:28 | -33.97106 | -64.21615 | 30171 ft | 407 kts | 283° |
| 2026-04-22 22:28 | -33.95767 | -64.28216 | 30171 ft | 407 kts | 283° |
| 2026-04-22 22:29 | -33.94412 | -64.34877 | 30171 ft | 407 kts | 283° |
| 2026-04-22 22:29 | -33.93060 | -64.41504 | 30171 ft | 407 kts | 283° |
| 2026-04-22 22:30 | -33.91707 | -64.48113 | 30171 ft | 407 kts | 283° |
| 2026-04-22 22:30 | -33.90353 | -64.54711 | 30172 ft | 408 kts | 283° |
| 2026-04-22 22:31 | -33.88941 | -64.61484 | 30171 ft | 408 kts | 284° |
| 2026-04-22 22:31 | -33.87531 | -64.68237 | 30171 ft | 408 kts | 284° |
| 2026-04-22 22:32 | -33.86162 | -64.74869 | 30171 ft | 408 kts | 284° |
| 2026-04-22 22:32 | -33.84784 | -64.81495 | 30171 ft | 408 kts | 284° |
| 2026-04-22 22:33 | -33.83386 | -64.88125 | 30171 ft | 408 kts | 283° |
| 2026-04-22 22:33 | -33.81977 | -64.94833 | 30170 ft | 410 kts | 282° |
| 2026-04-22 22:34 | -33.80563 | -65.01576 | 30169 ft | 413 kts | 281° |
| 2026-04-22 22:34 | -33.79138 | -65.08371 | 30170 ft | 416 kts | 281° |
| 2026-04-22 22:35 | -33.77683 | -65.15269 | 30171 ft | 416 kts | 281° |
| 2026-04-22 22:35 | -33.76240 | -65.22124 | 30171 ft | 416 kts | 281° |
| 2026-04-22 22:36 | -33.74795 | -65.28989 | 30171 ft | 416 kts | 281° |
| 2026-04-22 22:36 | -33.73328 | -65.35895 | 30171 ft | 416 kts | 281° |
| 2026-04-22 22:37 | -33.71789 | -65.42756 | 30170 ft | 417 kts | 282° |
| 2026-04-22 22:37 | -33.70170 | -65.49555 | 30171 ft | 417 kts | 282° |
| 2026-04-22 22:38 | -33.68564 | -65.56325 | 30171 ft | 417 kts | 282° |
| 2026-04-22 22:38 | -33.66967 | -65.63077 | 30171 ft | 417 kts | 282° |
| 2026-04-22 22:39 | -33.65363 | -65.69860 | 30171 ft | 417 kts | 283° |
| 2026-04-22 22:39 | -33.63753 | -65.76668 | 30171 ft | 417 kts | 283° |
| 2026-04-22 22:40 | -33.62146 | -65.83432 | 30171 ft | 417 kts | 283° |
| 2026-04-22 22:40 | -33.60542 | -65.90160 | 30171 ft | 417 kts | 283° |
| 2026-04-22 22:41 | -33.58930 | -65.96904 | 30171 ft | 417 kts | 283° |
| 2026-04-22 22:41 | -33.57305 | -66.03682 | 30171 ft | 417 kts | 283° |
| 2026-04-22 22:42 | -33.55698 | -66.10370 | 30171 ft | 417 kts | 283° |
| 2026-04-22 22:42 | -33.54085 | -66.17068 | 30171 ft | 417 kts | 283° |
| 2026-04-22 22:43 | -33.52460 | -66.23804 | 30171 ft | 417 kts | 283° |
| 2026-04-22 22:43 | -33.50832 | -66.30532 | 30171 ft | 417 kts | 283° |
| 2026-04-22 22:44 | -33.49189 | -66.37219 | 30170 ft | 417 kts | 284° |
| 2026-04-22 22:44 | -33.47181 | -66.43849 | 30171 ft | 419 kts | 287° |
| 2026-04-22 22:45 | -33.45108 | -66.50402 | 30171 ft | 419 kts | 287° |
| 2026-04-22 22:45 | -33.43019 | -66.56984 | 30171 ft | 419 kts | 287° |
| 2026-04-22 22:46 | -33.41192 | -66.63618 | 30172 ft | 417 kts | 283° |
| 2026-04-22 22:46 | -33.39523 | -66.70410 | 30180 ft | 418 kts | 283° |
| 2026-04-22 22:47 | -33.37856 | -66.77204 | 30189 ft | 418 kts | 283° |
| 2026-04-22 22:47 | -33.36198 | -66.83932 | 30195 ft | 418 kts | 283° |
| 2026-04-22 22:48 | -33.34530 | -66.90681 | 29511 ft | 419 kts | 283° |
| 2026-04-22 22:48 | -33.33704 | -66.94019 | 29013 ft | 416 kts | 284° |
| 2026-04-22 22:48 | -33.32882 | -66.97329 | 28550 ft | 411 kts | 284° |
| 2026-04-22 22:48 | -33.32056 | -67.00646 | 28121 ft | 406 kts | 283° |
| 2026-04-22 22:49 | -33.31247 | -67.03889 | 27734 ft | 400 kts | 283° |
| 2026-04-22 22:49 | -33.30456 | -67.07062 | 27369 ft | 394 kts | 283° |
| 2026-04-22 22:49 | -33.29670 | -67.10220 | 27007 ft | 387 kts | 283° |
| 2026-04-22 22:49 | -33.28897 | -67.13322 | 26649 ft | 381 kts | 283° |
| 2026-04-22 22:50 | -33.28143 | -67.16348 | 26295 ft | 375 kts | 283° |
| 2026-04-22 22:50 | -33.27396 | -67.19338 | 25942 ft | 370 kts | 284° |
| 2026-04-22 22:50 | -33.26657 | -67.22294 | 25583 ft | 364 kts | 284° |
| 2026-04-22 22:50 | -33.25933 | -67.25188 | 25230 ft | 359 kts | 284° |
| 2026-04-22 22:51 | -33.25177 | -67.28048 | 24882 ft | 355 kts | 286° |
| 2026-04-22 22:51 | -33.24387 | -67.30829 | 24510 ft | 351 kts | 287° |
| 2026-04-22 22:51 | -33.23602 | -67.33568 | 24109 ft | 348 kts | 287° |
| 2026-04-22 22:51 | -33.22815 | -67.36323 | 23688 ft | 346 kts | 288° |
| 2026-04-22 22:52 | -33.22030 | -67.39075 | 23253 ft | 344 kts | 288° |
| 2026-04-22 22:52 | -33.21261 | -67.41775 | 22823 ft | 343 kts | 288° |
| 2026-04-22 22:52 | -33.20487 | -67.44489 | 22382 ft | 341 kts | 289° |
| 2026-04-22 22:52 | -33.19718 | -67.47188 | 21941 ft | 340 kts | 289° |
| 2026-04-22 22:53 | -33.18957 | -67.49859 | 21498 ft | 339 kts | 289° |
| 2026-04-22 22:53 | -33.18188 | -67.52554 | 21049 ft | 338 kts | 289° |
| 2026-04-22 22:53 | -33.17430 | -67.55209 | 20603 ft | 338 kts | 290° |
| 2026-04-22 22:53 | -33.16671 | -67.57866 | 20155 ft | 337 kts | 290° |
| 2026-04-22 22:54 | -33.15909 | -67.60532 | 19706 ft | 337 kts | 290° |
| 2026-04-22 22:54 | -33.15139 | -67.63223 | 19251 ft | 336 kts | 290° |
| 2026-04-22 22:54 | -33.14386 | -67.65852 | 18809 ft | 336 kts | 291° |
| 2026-04-22 22:54 | -33.13617 | -67.68543 | 18356 ft | 336 kts | 291° |
| 2026-04-22 22:55 | -33.12861 | -67.71185 | 17913 ft | 336 kts | 291° |
| 2026-04-22 22:55 | -33.12037 | -67.73799 | 17470 ft | 335 kts | 295° |
| 2026-04-22 22:55 | -33.09784 | -67.78668 | 16597 ft | 332 kts | 304° |
| 2026-04-22 22:56 | -33.08497 | -67.80971 | 16168 ft | 331 kts | 305° |
| 2026-04-22 22:56 | -33.07194 | -67.83282 | 15743 ft | 331 kts | 304° |
| 2026-04-22 22:56 | -33.05909 | -67.85559 | 15325 ft | 330 kts | 304° |
| 2026-04-22 22:56 | -33.04609 | -67.87865 | 14906 ft | 329 kts | 304° |
| 2026-04-22 22:57 | -33.03317 | -67.90159 | 14490 ft | 328 kts | 304° |
| 2026-04-22 22:57 | -33.02049 | -67.92413 | 14083 ft | 327 kts | 304° |
| 2026-04-22 22:57 | -33.00850 | -67.94540 | 13700 ft | 326 kts | 304° |
| 2026-04-22 22:57 | -33.00521 | -67.95123 | 13594 ft | 326 kts | 304° |
| 2026-04-22 22:58 | -32.99251 | -67.97378 | 13189 ft | 325 kts | 304° |
| 2026-04-22 22:58 | -32.97974 | -67.99641 | 12784 ft | 324 kts | 304° |
| 2026-04-22 22:58 | -32.96690 | -68.01917 | 12376 ft | 323 kts | 304° |
| 2026-04-22 22:58 | -32.95440 | -68.04130 | 11975 ft | 322 kts | 304° |
| 2026-04-22 22:59 | -32.94173 | -68.06370 | 11577 ft | 321 kts | 304° |
| 2026-04-22 22:59 | -32.92929 | -68.08566 | 11191 ft | 320 kts | 304° |
| 2026-04-22 22:59 | -32.91686 | -68.10756 | 10826 ft | 317 kts | 304° |
| 2026-04-22 22:59 | -32.90448 | -68.12936 | 10554 ft | 310 kts | 304° |
| 2026-04-22 23:00 | -32.89350 | -68.14864 | 10346 ft | 303 kts | 304° |
| 2026-04-22 23:00 | -32.88117 | -68.17010 | 10262 ft | 289 kts | 304° |
| 2026-04-22 23:00 | -32.87002 | -68.18954 | 10198 ft | 277 kts | 304° |
| 2026-04-22 23:00 | -32.85921 | -68.20847 | 9875 ft | 277 kts | 304° |
| 2026-04-22 23:01 | -32.84825 | -68.22768 | 9531 ft | 277 kts | 304° |
| 2026-04-22 23:01 | -32.83711 | -68.24722 | 8639 ft | 297 kts | 304° |
| 2026-04-22 23:01 | -32.82540 | -68.26775 | 8233 ft | 288 kts | 304° |
| 2026-04-22 23:01 | -32.81432 | -68.28715 | 8111 ft | 280 kts | 304° |
| 2026-04-22 23:02 | -32.80322 | -68.30659 | 8135 ft | 280 kts | 304° |
| 2026-04-22 23:02 | -32.79221 | -68.32587 | 8157 ft | 280 kts | 304° |
| 2026-04-22 23:02 | -32.78100 | -68.34550 | 8169 ft | 280 kts | 304° |
| 2026-04-22 23:02 | -32.76997 | -68.36485 | 8174 ft | 280 kts | 304° |
| 2026-04-22 23:03 | -32.75885 | -68.38434 | 8176 ft | 280 kts | 304° |
| 2026-04-22 23:03 | -32.74793 | -68.40346 | 8177 ft | 280 kts | 304° |
| 2026-04-22 23:03 | -32.73674 | -68.42301 | 8178 ft | 280 kts | 304° |
| 2026-04-22 23:03 | -32.72565 | -68.44239 | 8178 ft | 280 kts | 304° |
| 2026-04-22 23:04 | -32.71443 | -68.46199 | 8178 ft | 280 kts | 304° |
| 2026-04-22 23:04 | -32.70331 | -68.48142 | 8178 ft | 280 kts | 304° |
| 2026-04-22 23:04 | -32.69222 | -68.50079 | 8160 ft | 280 kts | 304° |
| 2026-04-22 23:04 | -32.68112 | -68.52019 | 8131 ft | 280 kts | 304° |
| 2026-04-22 23:05 | -32.67019 | -68.53926 | 8040 ft | 280 kts | 304° |
| 2026-04-22 23:05 | -32.65895 | -68.55889 | 7679 ft | 280 kts | 304° |
| 2026-04-22 23:05 | -32.64811 | -68.57779 | 7360 ft | 278 kts | 304° |
| 2026-04-22 23:05 | -32.63713 | -68.59692 | 7051 ft | 274 kts | 304° |
| 2026-04-22 23:06 | -32.62661 | -68.61523 | 6991 ft | 261 kts | 304° |
| 2026-04-22 23:06 | -32.61660 | -68.63264 | 6954 ft | 247 kts | 304° |
| 2026-04-22 23:06 | -32.60815 | -68.65018 | 6734 ft | 245 kts | 285° |
| 2026-04-22 23:06 | -32.60836 | -68.67120 | 6438 ft | 243 kts | 252° |
| 2026-04-22 23:07 | -32.61517 | -68.69076 | 6179 ft | 244 kts | 246° |
| 2026-04-22 23:07 | -32.62240 | -68.70960 | 5910 ft | 243 kts | 246° |
| 2026-04-22 23:07 | -32.62969 | -68.72894 | 5635 ft | 242 kts | 247° |
| 2026-04-22 23:07 | -32.63664 | -68.74786 | 5368 ft | 240 kts | 248° |
| 2026-04-22 23:08 | -32.64330 | -68.76620 | 5125 ft | 238 kts | 248° |
| 2026-04-22 23:08 | -32.65104 | -68.78370 | 4929 ft | 238 kts | 227° |
| 2026-04-22 23:08 | -32.66533 | -68.79307 | 4823 ft | 235 kts | 188° |
| 2026-04-22 23:08 | -32.68145 | -68.79385 | 4748 ft | 224 kts | 178° |
| 2026-04-22 23:09 | -32.69700 | -68.79299 | 4632 ft | 216 kts | 177° |
| 2026-04-22 23:09 | -32.71163 | -68.79235 | 4525 ft | 200 kts | 178° |
| 2026-04-22 23:09 | -32.72555 | -68.79208 | 4108 ft | 193 kts | 179° |
| 2026-04-22 23:09 | -32.73900 | -68.79185 | 3714 ft | 185 kts | 178° |
| 2026-04-22 23:10 | -32.75130 | -68.79163 | 3547 ft | 166 kts | 181° |
| 2026-04-22 23:10 | -32.76251 | -68.79169 | 3361 ft | 154 kts | 182° |
| 2026-04-22 23:10 | -32.77336 | -68.79189 | 3197 ft | 153 kts | 181° |
| 2026-04-22 23:10 | -32.78418 | -68.79205 | 3000 ft | 152 kts | 180° |
| 2026-04-22 23:11 | -32.79481 | -68.79224 | 2843 ft | 152 kts | 180° |
| 2026-04-22 23:11 | -32.80558 | -68.79232 | 2610 ft | 151 kts | 181° |
| 2026-04-22 23:11 | -32.81620 | -68.79256 | 2418 ft | 151 kts | 181° |
| 2026-04-22 23:11 | -32.82660 | -68.79276 | 2323 ft | 135 kts | 179° |
| 2026-04-22 23:12 | -32.83436 | -68.79289 | 2332 ft | 85 kts | 185° |
| 2026-04-22 23:12 | -32.83864 | -68.79296 | 2329 ft | 43 kts | 181° |
| 2026-04-22 23:12 | -32.84059 | -68.79309 | 2326 ft | 15 kts | 213° |
| 2026-04-22 23:12 | -32.84059 | -68.79409 | 2326 ft | 12 kts | 283° |
| 2026-04-22 23:13 | -32.84043 | -68.79501 | 2329 ft | 10 kts | 290° |
| 2026-04-22 23:13 | -32.83984 | -68.79522 | 2329 ft | 10 kts | 1° |
| 2026-04-22 23:13 | -32.83908 | -68.79520 | 2328 ft | 11 kts | 359° |
| 2026-04-22 23:13 | -32.83828 | -68.79520 | 2328 ft | 11 kts | 359° |
| 2026-04-22 23:14 | -32.83746 | -68.79520 | 2328 ft | 11 kts | 0° |
| 2026-04-22 23:14 | -32.83666 | -68.79519 | 2329 ft | 11 kts | 1° |
| 2026-04-22 23:14 | -32.83591 | -68.79516 | 2330 ft | 10 kts | 2° |
| 2026-04-22 23:14 | -32.83517 | -68.79513 | 2330 ft | 10 kts | 0° |
| 2026-04-22 23:15 | -32.83446 | -68.79513 | 2331 ft | 10 kts | 1° |
| 2026-04-22 23:15 | -32.83373 | -68.79511 | 2331 ft | 10 kts | 0° |
| 2026-04-22 23:15 | -32.83299 | -68.79510 | 2331 ft | 11 kts | 1° |
| 2026-04-22 23:15 | -32.83219 | -68.79508 | 2331 ft | 11 kts | 1° |
| 2026-04-22 23:16 | -32.83136 | -68.79507 | 2330 ft | 12 kts | 0° |
| 2026-04-22 23:16 | -32.83049 | -68.79509 | 2329 ft | 13 kts | 351° |
| 2026-04-22 23:16 | -32.82973 | -68.79575 | 2328 ft | 14 kts | 317° |
| 2026-04-22 23:16 | -32.82933 | -68.79672 | 2327 ft | 11 kts | 274° |
| 2026-04-22 23:17 | -32.82875 | -68.79707 | 2327 ft | 10 kts | 1° |
| 2026-04-22 23:17 | -32.82800 | -68.79706 | 2327 ft | 8 kts | 359° |
| 2026-04-22 23:17 | -32.82763 | -68.79709 | 2327 ft | 2 kts | 326° |
| 2026-04-22 23:17 | -32.82764 | -68.79737 | 2327 ft | 3 kts | 262° |
| 2026-04-22 23:18 | -32.82766 | -68.79768 | 2327 ft | 3 kts | 264° |
| 2026-04-22 23:18 | -32.82767 | -68.79775 | 2326 ft | 0 kts | 264° |